createdAt,value
2023-04-18T00:00:37.965Z,100186.84
2023-04-18T00:03:40.567Z,100186.84
2023-04-18T00:06:42.982Z,100186.50
2023-04-18T00:09:45.622Z,100188.44
2023-04-18T00:12:48.065Z,100186.63
2023-04-18T00:15:50.377Z,100187.94
2023-04-18T00:18:53.795Z,100192.91
2023-04-18T00:21:58.484Z,100190.59
2023-04-18T00:25:00.923Z,100190.25
2023-04-18T00:28:03.186Z,100200.16
2023-04-18T00:31:05.574Z,100203.91
2023-04-18T00:34:07.890Z,100206.94
2023-04-18T00:37:10.234Z,100206.47
2023-04-18T00:40:12.579Z,100206.69
2023-04-18T00:43:15.133Z,100205.13
2023-04-18T00:46:17.720Z,100200.41
2023-04-18T00:49:20.555Z,100205.47
2023-04-18T00:52:26.076Z,100206.69
2023-04-18T00:55:29.092Z,100204.75
2023-04-18T00:58:32.222Z,100201.38
2023-04-18T01:01:34.520Z,100195.94
2023-04-18T01:04:37.395Z,100196.66
2023-04-18T01:07:42.600Z,100193.88
2023-04-18T01:10:45.137Z,100193.63
2023-04-18T01:14:05.137Z,100197.28
2023-04-18T01:17:10.927Z,100190.25
2023-04-18T01:20:13.816Z,100195.56
2023-04-18T01:23:18.113Z,100193.34
2023-04-18T01:26:20.481Z,100194.59
2023-04-18T01:29:23.040Z,100203.31
2023-04-18T01:32:25.397Z,100195.88
2023-04-18T01:35:28.575Z,100195.34
2023-04-18T01:38:33.200Z,100194.19
2023-04-18T01:41:36.617Z,100192.34
2023-04-18T01:44:38.869Z,100192.50
2023-04-18T01:47:41.201Z,100194.03
2023-04-18T01:50:47.042Z,100200.22
2023-04-18T01:53:49.953Z,100193.09
2023-04-18T01:56:52.052Z,100194.31
2023-04-18T01:59:54.333Z,100197.59
2023-04-18T02:02:59.111Z,100193.63
2023-04-18T02:06:02.722Z,100197.25
2023-04-18T02:09:05.324Z,100199.09
2023-04-18T02:12:07.709Z,100201.63
2023-04-18T02:15:10.683Z,100209.97
2023-04-18T02:18:13.046Z,100198.09
2023-04-18T02:21:15.378Z,100204.00
2023-04-18T02:24:17.927Z,100200.63
2023-04-18T02:27:20.214Z,100206.69
2023-04-18T02:30:23.361Z,100200.16
2023-04-18T02:33:25.666Z,100205.25
2023-04-18T02:36:28.469Z,100200.06
2023-04-18T02:39:31.609Z,100216.16
2023-04-18T02:42:33.933Z,100206.69
2023-04-18T02:45:37.294Z,100212.97
2023-04-18T02:48:40.254Z,100222.91
2023-04-18T02:51:43.643Z,100220.38
2023-04-18T02:54:46.657Z,100219.97
2023-04-18T02:57:53.247Z,100218.88
2023-04-18T03:01:27.345Z,100219.53
2023-04-18T03:04:49.912Z,100212.38
2023-04-18T03:07:52.214Z,100218.16
2023-04-18T03:10:56.381Z,100227.13
2023-04-18T03:14:00.497Z,100216.75
2023-04-18T03:17:09.464Z,100220.09
2023-04-18T03:20:15.711Z,100227.25
2023-04-18T03:23:18.059Z,100229.00
2023-04-18T03:26:21.432Z,100223.66
2023-04-18T03:29:23.661Z,100232.34
2023-04-18T03:32:27.064Z,100232.88
2023-04-18T03:35:29.461Z,100227.22
2023-04-18T03:38:32.091Z,100223.84
2023-04-18T03:41:34.378Z,100230.09
2023-04-18T03:44:37.053Z,100234.38
2023-04-18T03:47:40.024Z,100226.53
2023-04-18T03:50:42.583Z,100229.19
2023-04-18T03:53:46.051Z,100234.16
2023-04-18T03:56:48.360Z,100230.88
2023-04-18T03:59:51.187Z,100242.47
2023-04-18T04:02:54.020Z,100245.13
2023-04-18T04:05:56.579Z,100241.50
2023-04-18T04:08:59.102Z,100242.47
2023-04-18T04:12:03.915Z,100244.69
2023-04-18T04:15:06.884Z,100250.50
2023-04-18T04:18:10.148Z,100244.69
2023-04-18T04:21:15.912Z,100254.34
2023-04-18T04:24:23.488Z,100255.94
2023-04-18T04:27:27.055Z,100261.81
2023-04-18T04:30:31.817Z,100259.38
2023-04-18T04:33:35.801Z,100263.44
2023-04-18T04:36:43.154Z,100267.63
2023-04-18T04:39:47.886Z,100261.94
2023-04-18T04:43:22.526Z,100265.47
2023-04-18T04:46:25.137Z,100274.88
2023-04-18T04:49:27.478Z,100279.63
2023-04-18T04:52:29.772Z,100268.03
2023-04-18T04:55:32.875Z,100278.91
2023-04-18T04:58:36.720Z,100274.31
2023-04-18T05:01:57.435Z,100281.16
2023-04-18T05:04:59.816Z,100284.94
2023-04-18T05:08:02.582Z,100279.06
2023-04-18T05:11:04.985Z,100280.91
2023-04-18T05:14:07.596Z,100285.88
2023-04-18T05:17:09.892Z,100285.50
2023-04-18T05:20:12.299Z,100278.69
2023-04-18T05:23:14.575Z,100286.63
2023-04-18T05:26:17.548Z,100293.38
2023-04-18T05:29:19.876Z,100293.53
2023-04-18T05:32:22.325Z,100297.88
2023-04-18T05:35:24.623Z,100285.03
2023-04-18T05:38:26.928Z,100290.13
2023-04-18T05:41:29.159Z,100293.50
2023-04-18T05:44:31.411Z,100301.50
2023-04-18T05:47:33.855Z,100302.47
2023-04-18T05:50:36.178Z,100297.78
2023-04-18T05:53:38.519Z,100308.53
2023-04-18T05:56:41.065Z,100300.34
2023-04-18T05:59:43.610Z,100301.75
2023-04-18T06:02:46.349Z,100303.34
2023-04-18T06:05:48.775Z,100307.09
2023-04-18T06:08:52.187Z,100313.53
2023-04-18T06:11:54.460Z,100299.88
2023-04-18T06:14:56.754Z,100302.75
2023-04-18T06:17:59.148Z,100310.50
2023-04-18T06:21:01.554Z,100308.44
2023-04-18T06:24:03.999Z,100310.50
2023-04-18T06:27:09.319Z,100313.63
2023-04-18T06:30:15.138Z,100308.31
2023-04-18T06:33:17.367Z,100316.78
2023-04-18T06:36:19.956Z,100307.72
2023-04-18T06:39:22.221Z,100319.69
2023-04-18T06:42:24.633Z,100315.31
2023-04-18T06:45:32.995Z,100318.78
2023-04-18T06:48:35.315Z,100315.91
2023-04-18T06:51:37.659Z,100317.00
2023-04-18T06:54:39.964Z,100312.91
2023-04-18T06:57:42.807Z,100315.53
2023-04-18T07:00:47.652Z,100316.72
2023-04-18T07:03:50.015Z,100320.25
2023-04-18T07:06:52.835Z,100321.28
2023-04-18T07:09:55.111Z,100325.75
2023-04-18T07:12:57.322Z,100327.94
2023-04-18T07:15:59.619Z,100329.66
2023-04-18T07:19:01.869Z,100325.19
2023-04-18T07:22:04.159Z,100320.38
2023-04-18T07:25:06.945Z,100334.13
2023-04-18T07:28:09.053Z,100342.75
2023-04-18T07:31:11.491Z,100331.47
2023-04-18T07:34:14.562Z,100335.69
2023-04-18T07:37:18.410Z,100351.25
2023-04-18T07:40:21.247Z,100348.44
2023-04-18T07:43:23.455Z,100357.72
2023-04-18T07:46:25.813Z,100350.69
2023-04-18T07:49:28.099Z,100358.56
2023-04-18T07:52:30.340Z,100357.56
2023-04-18T07:55:32.567Z,100358.66
2023-04-18T07:58:35.169Z,100366.38
2023-04-18T08:01:37.464Z,100368.00
2023-04-18T08:04:40.062Z,100363.50
2023-04-18T08:07:42.486Z,100365.94
2023-04-18T08:10:44.950Z,100365.56
2023-04-18T08:13:47.254Z,100359.09
2023-04-18T08:16:49.678Z,100353.44
2023-04-18T08:19:52.084Z,100355.72
2023-04-18T08:23:06.008Z,100360.81
2023-04-18T08:26:11.284Z,100359.53
2023-04-18T08:29:13.772Z,100360.03
2023-04-18T08:32:16.140Z,100364.78
2023-04-18T08:35:18.434Z,100366.41
2023-04-18T08:38:20.716Z,100367.78
2023-04-18T08:41:24.155Z,100377.84
2023-04-18T08:44:29.733Z,100370.66
2023-04-18T08:47:32.064Z,100371.81
2023-04-18T08:50:34.297Z,100380.81
2023-04-18T08:53:36.616Z,100371.63
2023-04-18T08:56:38.908Z,100377.94
2023-04-18T08:59:43.131Z,100383.50
2023-04-18T09:02:46.951Z,100381.69
2023-04-18T09:06:08.415Z,100367.22
2023-04-18T09:09:10.722Z,100373.13
2023-04-18T09:12:14.969Z,100368.03
2023-04-18T09:15:20.502Z,100362.41
2023-04-18T09:18:25.147Z,100361.09
2023-04-18T09:21:28.025Z,100369.09
2023-04-18T09:24:31.973Z,100365.22
2023-04-18T09:27:34.954Z,100363.53
2023-04-18T09:30:40.161Z,100368.84
2023-04-18T09:33:54.186Z,100365.56
2023-04-18T09:37:10.153Z,100363.72
2023-04-18T09:40:19.643Z,100366.91
2023-04-18T09:43:22.042Z,100368.22
2023-04-18T09:46:24.403Z,100367.31
2023-04-18T09:49:27.252Z,100368.97
2023-04-18T09:52:32.289Z,100361.03
2023-04-18T09:55:35.202Z,100356.81
2023-04-18T09:58:41.281Z,100354.34
2023-04-18T10:01:47.917Z,100356.53
2023-04-18T10:04:53.553Z,100361.50
2023-04-18T10:07:56.185Z,100352.06
2023-04-18T10:10:58.766Z,100355.38
2023-04-18T10:14:07.235Z,100351.66
2023-04-18T10:17:10.251Z,100363.53
2023-04-18T10:20:18.022Z,100348.38
2023-04-18T10:23:34.554Z,100365.16
2023-04-18T10:26:47.198Z,100361.28
2023-04-18T10:29:53.916Z,100356.19
2023-04-18T10:32:56.204Z,100356.13
2023-04-18T10:36:01.489Z,100354.56
2023-04-18T10:39:23.342Z,100353.34
2023-04-18T10:42:47.077Z,100349.44
2023-04-18T10:46:23.791Z,100336.84
2023-04-18T10:49:34.124Z,100356.81
2023-04-18T10:52:36.467Z,100343.84
2023-04-18T10:55:43.289Z,100340.00
2023-04-18T10:58:51.130Z,100346.31
2023-04-18T11:02:22.995Z,100343.53
2023-04-18T11:05:29.245Z,100349.91
2023-04-18T11:08:31.536Z,100339.16
2023-04-18T11:11:33.848Z,100336.88
2023-04-18T11:14:48.785Z,100345.47
2023-04-18T11:18:01.274Z,100351.13
2023-04-18T11:21:03.860Z,100347.59
2023-04-18T11:24:06.408Z,100352.13
2023-04-18T11:27:09.848Z,100359.72
2023-04-18T11:30:13.243Z,100344.91
2023-04-18T11:33:16.716Z,100357.28
2023-04-18T11:36:19.212Z,100353.50
2023-04-18T11:39:22.238Z,100352.53
2023-04-18T11:42:28.588Z,100351.81
2023-04-18T11:45:31.256Z,100351.75
2023-04-18T11:48:36.791Z,100318.91
2023-04-18T11:51:39.184Z,100343.44
2023-04-18T11:54:43.014Z,100343.13
2023-04-18T11:57:58.570Z,100347.72
2023-04-18T12:01:18.894Z,100354.41
2023-04-18T12:04:21.541Z,100346.19
2023-04-18T12:07:44.402Z,100340.56
2023-04-18T12:10:54.051Z,100353.41
2023-04-18T12:13:56.899Z,100334.84
2023-04-18T12:16:59.217Z,100344.66
2023-04-18T12:20:03.736Z,100344.31
2023-04-18T12:23:06.555Z,100338.31
2023-04-18T12:26:11.382Z,100333.66
2023-04-18T12:29:13.934Z,100342.09
2023-04-18T12:32:17.085Z,100331.13
2023-04-18T12:35:20.842Z,100338.09
2023-04-18T12:38:23.653Z,100346.13
2023-04-18T12:41:25.976Z,100344.03
2023-04-18T12:44:28.515Z,100336.63
2023-04-18T12:47:31.145Z,100346.59
2023-04-18T12:50:33.548Z,100337.88
2023-04-18T12:53:35.782Z,100337.16
2023-04-18T12:56:38.018Z,100340.44
2023-04-18T12:59:40.350Z,100341.47
2023-04-18T13:02:44.290Z,100340.28
2023-04-18T13:05:46.661Z,100339.84
2023-04-18T13:08:48.926Z,100352.13
2023-04-18T13:11:51.135Z,100350.13
2023-04-18T13:14:53.352Z,100347.53
2023-04-18T13:18:04.361Z,100348.31
2023-04-18T13:21:06.840Z,100346.34
2023-04-18T13:24:09.120Z,100354.25
2023-04-18T13:27:11.976Z,100351.19
2023-04-18T13:30:14.218Z,100341.31
2023-04-18T13:33:16.999Z,100344.53
2023-04-18T13:36:19.109Z,100340.31
2023-04-18T13:39:22.818Z,100339.34
2023-04-18T13:42:25.069Z,100345.53
2023-04-18T13:45:27.459Z,100338.22
2023-04-18T13:48:29.756Z,100349.22
2023-04-18T13:51:32.118Z,100343.56
2023-04-18T13:54:34.600Z,100343.56
2023-04-18T13:57:37.367Z,100354.84
2023-04-18T14:00:39.606Z,100350.31
2023-04-18T14:03:43.671Z,100360.47
2023-04-18T14:06:48.460Z,100356.78
2023-04-18T14:09:53.310Z,100339.16
2023-04-18T14:12:56.242Z,100341.31
2023-04-18T14:15:58.900Z,100342.34
2023-04-18T14:19:01.698Z,100340.19
2023-04-18T14:22:03.831Z,100332.84
2023-04-18T14:25:06.775Z,100343.00
2023-04-18T14:28:11.252Z,100341.31
2023-04-18T14:31:14.392Z,100337.34
2023-04-18T14:34:16.632Z,100332.28
2023-04-18T14:37:18.907Z,100331.69
2023-04-18T14:40:22.569Z,100347.25
2023-04-18T14:43:25.701Z,100337.13
2023-04-18T14:46:28.379Z,100337.66
2023-04-18T14:49:30.860Z,100331.19
2023-04-18T14:52:33.100Z,100336.56
2023-04-18T14:55:35.454Z,100336.81
2023-04-18T14:58:37.761Z,100335.81
2023-04-18T15:01:41.614Z,100350.19
2023-04-18T15:04:44.063Z,100345.38
2023-04-18T15:07:47.714Z,100359.09
2023-04-18T15:10:52.809Z,100342.91
2023-04-18T15:13:55.072Z,100345.97
2023-04-18T15:16:57.746Z,100339.38
2023-04-18T15:20:00.190Z,100348.66
2023-04-18T15:23:03.090Z,100347.81
2023-04-18T15:26:05.413Z,100346.16
2023-04-18T15:29:07.976Z,100348.66
2023-04-18T15:32:10.299Z,100335.13
2023-04-18T15:35:12.942Z,100342.34
2023-04-18T15:38:15.189Z,100338.81
2023-04-18T15:41:17.410Z,100361.78
2023-04-18T15:44:19.647Z,100350.97
2023-04-18T15:47:21.970Z,100349.25
2023-04-18T15:50:24.435Z,100345.91
2023-04-18T15:53:26.979Z,100352.78
2023-04-18T15:56:32.466Z,100349.53
2023-04-18T15:59:36.224Z,100353.78
2023-04-18T16:02:38.669Z,100353.19
2023-04-18T16:05:41.473Z,100346.16
2023-04-18T16:08:43.756Z,100352.66
2023-04-18T16:11:46.050Z,100359.69
2023-04-18T16:14:48.312Z,100355.75
2023-04-18T16:17:50.670Z,100363.66
2023-04-18T16:20:52.947Z,100378.00
2023-04-18T16:23:55.431Z,100357.72
2023-04-18T16:26:58.558Z,100369.44
2023-04-18T16:30:01.180Z,100370.69
2023-04-18T16:33:03.952Z,100366.75
2023-04-18T16:36:06.968Z,100370.97
2023-04-18T16:39:09.198Z,100369.56
2023-04-18T16:42:13.351Z,100359.84
2023-04-18T16:45:17.346Z,100369.13
2023-04-18T16:48:19.608Z,100358.25
2023-04-18T16:51:22.038Z,100366.19
2023-04-18T16:54:24.283Z,100367.00
2023-04-18T16:57:26.504Z,100369.28
2023-04-18T17:00:29.371Z,100372.38
2023-04-18T17:03:31.808Z,100379.56
2023-04-18T17:06:34.376Z,100377.47
2023-04-18T17:09:36.735Z,100385.59
2023-04-18T17:12:39.011Z,100387.28
2023-04-18T17:15:41.378Z,100386.75
2023-04-18T17:18:43.698Z,100379.97
2023-04-18T17:21:46.384Z,100382.94
2023-04-18T17:24:48.676Z,100382.47
2023-04-18T17:27:51.107Z,100384.88
2023-04-18T17:30:53.420Z,100379.53
2023-04-18T17:33:56.329Z,100385.34
2023-04-18T17:36:58.663Z,100388.00
2023-04-18T17:40:03.625Z,100396.19
2023-04-18T17:43:06.175Z,100395.59
2023-04-18T17:46:08.459Z,100397.28
2023-04-18T17:49:11.408Z,100393.63
2023-04-18T17:52:13.766Z,100397.19
2023-04-18T17:55:16.060Z,100399.16
2023-04-18T17:58:19.566Z,100399.00
2023-04-18T18:01:22.449Z,100402.25
2023-04-18T18:04:26.461Z,100407.47
2023-04-18T18:07:31.009Z,100407.47
2023-04-18T18:10:33.943Z,100407.63
2023-04-18T18:13:36.733Z,100419.44
2023-04-18T18:16:39.231Z,100419.84
2023-04-18T18:19:41.523Z,100412.41
2023-04-18T18:22:44.184Z,100423.38
2023-04-18T18:25:46.524Z,100419.41
2023-04-18T18:28:48.816Z,100426.91
2023-04-18T18:31:51.177Z,100427.31
2023-04-18T18:34:53.616Z,100425.88
2023-04-18T18:37:56.132Z,100428.16
2023-04-18T18:40:59.348Z,100420.53
2023-04-18T18:44:02.829Z,100424.75
2023-04-18T18:47:05.865Z,100425.84
2023-04-18T18:50:08.619Z,100434.16
2023-04-18T18:53:10.947Z,100433.16
2023-04-18T18:56:13.281Z,100440.75
2023-04-18T18:59:16.007Z,100433.69
2023-04-18T19:02:18.661Z,100440.06
2023-04-18T19:05:21.157Z,100443.41
2023-04-18T19:08:23.423Z,100448.75
2023-04-18T19:11:26.756Z,100453.72
2023-04-18T19:14:28.977Z,100454.97
2023-04-18T19:17:31.472Z,100466.22
2023-04-18T19:20:33.795Z,100469.66
2023-04-18T19:23:38.900Z,100483.75
2023-04-18T19:26:45.093Z,100484.38
2023-04-18T19:29:47.379Z,100482.06
2023-04-18T19:32:49.694Z,100490.06
2023-04-18T19:35:52.185Z,100484.59
2023-04-18T19:38:55.549Z,100489.09
2023-04-18T19:41:57.789Z,100489.53
2023-04-18T19:45:00.341Z,100490.66
2023-04-18T19:48:02.666Z,100494.09
2023-04-18T19:51:05.035Z,100495.88
2023-04-18T19:54:07.473Z,100499.22
2023-04-18T19:57:09.831Z,100498.72
2023-04-18T20:00:13.303Z,100495.81
2023-04-18T20:03:17.308Z,100501.63
2023-04-18T20:06:20.237Z,100500.16
2023-04-18T20:09:22.617Z,100493.34
2023-04-18T20:12:27.164Z,100504.72
2023-04-18T20:15:30.768Z,100507.25
2023-04-18T20:18:35.809Z,100512.31
2023-04-18T20:21:38.062Z,100504.16
2023-04-18T20:24:40.382Z,100506.81
2023-04-18T20:27:42.596Z,100504.47
2023-04-18T20:30:47.589Z,100500.69
2023-04-18T20:33:52.869Z,100507.13
2023-04-18T20:36:55.549Z,100507.38
2023-04-18T20:39:58.787Z,100508.34
2023-04-18T20:43:03.042Z,100505.72
2023-04-18T20:46:06.931Z,100500.44
2023-04-18T20:49:09.819Z,100505.66
2023-04-18T20:52:13.380Z,100502.66
2023-04-18T20:55:18.259Z,100501.97
2023-04-18T20:58:20.751Z,100505.91
2023-04-18T21:01:23.332Z,100513.75
2023-04-18T21:04:25.893Z,100506.81
2023-04-18T21:07:29.671Z,100495.84
2023-04-18T21:10:32.021Z,100492.50
2023-04-18T21:13:34.763Z,100498.63
2023-04-18T21:16:39.399Z,100491.94
2023-04-18T21:19:41.822Z,100495.81
2023-04-18T21:22:44.115Z,100496.72
2023-04-18T21:25:46.343Z,100490.88
2023-04-18T21:28:56.481Z,100483.41
2023-04-18T21:31:58.874Z,100482.69
2023-04-18T21:35:01.573Z,100479.75
2023-04-18T21:38:03.807Z,100484.00
2023-04-18T21:41:06.067Z,100483.28
2023-04-18T21:44:08.327Z,100474.50
2023-04-18T21:47:10.674Z,100490.28
2023-04-18T21:50:13.157Z,100489.88
2023-04-18T21:53:15.424Z,100490.78
2023-04-18T21:56:17.679Z,100487.66
2023-04-18T21:59:20.003Z,100481.13
2023-04-18T22:02:22.383Z,100478.13
2023-04-18T22:05:26.325Z,100474.91
2023-04-18T22:08:29.574Z,100473.41
2023-04-18T22:11:32.271Z,100470.47
2023-04-18T22:14:34.591Z,100469.22
2023-04-18T22:17:38.014Z,100471.72
2023-04-18T22:20:44.101Z,100477.38
2023-04-18T22:23:46.336Z,100473.72
2023-04-18T22:26:48.783Z,100473.91
2023-04-18T22:29:51.086Z,100467.84
2023-04-18T22:32:53.327Z,100466.88
2023-04-18T22:35:55.778Z,100461.66
2023-04-18T22:38:58.077Z,100457.16
2023-04-18T22:42:00.389Z,100455.34
2023-04-18T22:45:02.734Z,100457.91
2023-04-18T22:48:05.427Z,100454.31
2023-04-18T22:51:07.658Z,100443.63
2023-04-18T22:54:09.920Z,100448.91
2023-04-18T22:57:12.169Z,100435.72
2023-04-18T23:00:14.777Z,100431.09
2023-04-18T23:03:17.137Z,100430.84
2023-04-18T23:06:19.533Z,100419.44
2023-04-18T23:09:21.995Z,100428.91
2023-04-18T23:12:24.525Z,100424.41
2023-04-18T23:15:27.034Z,100421.84
2023-04-18T23:18:30.049Z,100420.16
2023-04-18T23:21:32.468Z,100412.28
2023-04-18T23:24:34.702Z,100413.38
2023-04-18T23:27:36.928Z,100406.09
2023-04-18T23:30:39.610Z,100407.78
2023-04-18T23:33:41.843Z,100399.47
2023-04-18T23:36:44.124Z,100397.75
2023-04-18T23:39:46.383Z,100396.50
2023-04-18T23:42:48.646Z,100385.56
2023-04-18T23:45:50.973Z,100386.66
2023-04-18T23:48:53.213Z,100383.72
2023-04-18T23:51:55.458Z,100383.59
2023-04-18T23:55:01.455Z,100379.09
2023-04-18T23:58:03.728Z,100381.91
